THR weather

Mehrabad International Airport
Tehran, Tehran Province, Iran

Public forecast

Using degrees Celsius for public forecast. Weather courtesy of forecast.io.

Current aviation weather report (METAR) for Mehrabad International Airport

Retrieved 2020/05/25 10:30 UTC (28 minutes ago):

OIII 251030Z 13012KT 9999 FEW035 34/M03 Q1017 A3005

Aviation forecast (TAF) for Mehrabad International Airport

Retrieved 2020/05/25 06:51 UTC (4 hours ago):

TAF OIII 250530Z 2506/2612 14006KT 8000 FEW040 TEMPO 2509/2515 16016KT FEW035TCU SCT080 BECMG 2517/2518 30008KT